»·PEaware :: DAL280 KRNO-KMRY

DAL280 :: KRNO-KMRY

FLIGHT INFORMATION

Flight Status: Arrived
Operator:
Delta Air Lines
More flights by this operator :: More flights under this callsign
Pilot: Ion I. (24133)
Aircraft: BOEING 737-800
(B738)
More flights by this aircraft type
Origin: KRNO Reno/Tahoe Intl
United States
Destination: KMRY Monterey Peninsula
United States
More flights between these airports :: More routes between these airports
Route: ZEFFR6 DARBI PXN BASEC
File this flight plan on PilotEdge
Remarks:
Altitude:
(Current/Filed)
28,000ft
Speed:
(Current/Filed)
460kts
Departed: 08-Oct-20 09:29 AM
Arrived: 08-Oct-20 10:11 AM
Distance/Time
Traveled:
200nm/0:42
Distance/Time
To Go:
Arrived

Flight Plot

Page will automatically refresh every two minutes.

Flight plan parsing failed; only flown route is shown


Map Options




Map Legend


Flown Route
Filed Route
Departure Airport
Arrival Airport
Navaid (VOR, NDB)
Fix

Horizontal Profiles

Position Reports

Time Latitude Longitude Heading Altitude Ground
Speed
08-Oct-20 09:07 39.507486 -119.772941 181 4423ft 0kts
08-Oct-20 09:08 39.507486 -119.772941 181 4423ft 0kts
08-Oct-20 09:09 39.507486 -119.772941 181 4423ft 0kts
08-Oct-20 09:10 39.507486 -119.772941 181 4423ft 0kts
08-Oct-20 09:11 39.507486 -119.772941 181 4423ft 0kts
08-Oct-20 09:12 39.507486 -119.772941 181 4423ft 0kts
08-Oct-20 09:13 39.507486 -119.772941 181 4423ft 0kts
08-Oct-20 09:14 39.507486 -119.772941 181 4423ft 0kts
08-Oct-20 09:15 39.507486 -119.772941 181 4423ft 0kts
08-Oct-20 09:16 39.507486 -119.772941 181 4423ft 0kts
08-Oct-20 09:17 39.507486 -119.772941 181 4423ft 0kts
08-Oct-20 09:17 39.507486 -119.772941 181 4423ft 0kts
08-Oct-20 09:19 39.507486 -119.772941 181 4423ft 0kts
08-Oct-20 09:19 39.507486 -119.772941 181 4423ft 0kts
08-Oct-20 09:21 39.507486 -119.772941 181 4423ft 0kts
08-Oct-20 09:21 39.507486 -119.772941 181 4423ft 0kts
08-Oct-20 09:23 39.508254 -119.772910 181 4423ft 2kts
08-Oct-20 09:23 39.508306 -119.772908 181 4423ft 0kts
08-Oct-20 09:24 39.508305 -119.772908 181 4423ft 0kts
08-Oct-20 09:25 39.508180 -119.772883 158 4423ft 6kts
08-Oct-20 09:26 39.510578 -119.771477 0 4423ft 10kts
08-Oct-20 09:27 39.513735 -119.771197 68 4423ft 9kts
08-Oct-20 09:28 39.510752 -119.769228 179 4423ft 65kts
08-Oct-20 09:29 39.468184 -119.768619 181 5914ft 177kts
08-Oct-20 09:30 39.406179 -119.770379 181 7619ft 272kts
08-Oct-20 09:31 39.326269 -119.768852 181 10796ft 296kts
08-Oct-20 09:32 39.234148 -119.767176 179 12573ft 364kts
08-Oct-20 09:33 39.129888 -119.762658 179 15266ft 382kts
08-Oct-20 09:34 39.021818 -119.758519 179 17925ft 395kts
08-Oct-20 09:35 38.910007 -119.754305 179 20292ft 408kts
08-Oct-20 09:36 38.794709 -119.749980 179 22456ft 419kts
08-Oct-20 09:37 38.676719 -119.745582 179 24318ft 429kts
08-Oct-20 09:38 38.556091 -119.741081 180 26007ft 438kts
08-Oct-20 09:39 38.434646 -119.736585 181 27995ft 434kts
08-Oct-20 09:40 38.313413 -119.736811 193 28205ft 428kts
08-Oct-20 09:41 38.204791 -119.794884 209 28197ft 423kts
08-Oct-20 09:42 38.101120 -119.864885 209 28186ft 423kts
08-Oct-20 09:43 37.997081 -119.934662 209 28171ft 423kts
08-Oct-20 09:44 37.892998 -120.004810 209 28122ft 423kts
08-Oct-20 09:45 37.788916 -120.074388 209 27896ft 419kts
08-Oct-20 09:46 37.688566 -120.141218 209 26898ft 403kts
08-Oct-20 09:47 37.589938 -120.206660 208 25895ft 397kts
08-Oct-20 09:48 37.492447 -120.271198 208 24893ft 393kts
08-Oct-20 09:49 37.396235 -120.334685 207 24019ft 388kts
08-Oct-20 09:50 37.300280 -120.397796 207 24004ft 389kts
08-Oct-20 09:51 37.204616 -120.460527 207 24001ft 388kts
08-Oct-20 09:52 37.109351 -120.522868 207 22876ft 382kts
08-Oct-20 09:53 37.016276 -120.583532 207 20841ft 372kts
08-Oct-20 09:54 36.925506 -120.642892 207 18871ft 365kts
08-Oct-20 09:55 36.835874 -120.700940 207 16889ft 360kts
08-Oct-20 09:56 36.747997 -120.758077 211 15011ft 353kts
08-Oct-20 09:57 36.710399 -120.855484 262 13188ft 352kts
08-Oct-20 09:58 36.703228 -120.976245 266 11361ft 346kts
08-Oct-20 09:59 36.697339 -121.083338 265 10202ft 317kts
08-Oct-20 10:00 36.690979 -121.183972 264 9740ft 280kts
08-Oct-20 10:01 36.684851 -121.279268 264 8484ft 271kts
08-Oct-20 10:02 36.678813 -121.372162 264 7185ft 266kts
08-Oct-20 10:03 36.673675 -121.459694 265 5945ft 238kts
08-Oct-20 10:04 36.668023 -121.535701 262 4957ft 201kts
08-Oct-20 10:05 36.661685 -121.603772 246 5009ft 202kts
08-Oct-20 10:06 36.624127 -121.660352 228 3801ft 215kts
08-Oct-20 10:07 36.588419 -121.711044 231 2613ft 174kts
08-Oct-20 10:08 36.565743 -121.758598 261 1796ft 151kts
08-Oct-20 10:09 36.575241 -121.809541 292 784ft 148kts
08-Oct-20 10:10 36.588679 -121.849355 292 213ft 25kts
08-Oct-20 10:11 36.588195 -121.850308 114 213ft 5kts
08-Oct-20 10:12 36.587602 -121.848425 110 213ft 7kts
08-Oct-20 10:13 36.587151 -121.848477 291 213ft 0kts
08-Oct-20 10:14 36.587148 -121.848468 291 213ft 0kts
08-Oct-20 10:15 36.587148 -121.848468 291 213ft 0kts
08-Oct-20 10:16 36.587148 -121.848468 291 213ft 0kts
08-Oct-20 10:17 36.587148 -121.848468 291 213ft 0kts

Navigation Log

Ident Type
Flight plan parsing failed, navigation log unavailable